Time;durP1;ratioP1;P1;durP2;ratioP2;P2;SDS_P1;SDS_P2;PMS_P1;PMS_P2;Temp;Humidity;BMP_temperature;BMP_pressure;BME280_temperature;BME280_humidity;BME280_pressure;Samples;Min_cycle;Max_cycle;Signal;HPM_P1;HPM_P2
2023/03/09 00:02:27;;;;;;;;;;;;;;;27.50;61.13;101262.22;5052568;28;69649;-40
2023/03/09 00:05:00;;;;;;;;;;;;;;;27.54;61.60;101274.25;5047273;27;66868;-40
2023/03/09 00:07:30;;;;;;;;;;;;;;;27.58;61.98;101275.56;5048612;27;69259;-39
2023/03/09 00:10:01;;;;;;;;;;;;;;;27.61;62.54;101277.88;5048740;28;66680;-42
2023/03/09 00:12:31;;;;;;;;;;;;;;;27.65;62.96;101285.59;5050737;28;69239;-40
2023/03/09 00:15:01;;;;;;;;;;;;;;;27.67;63.00;101288.94;5047762;28;65730;-40
2023/03/09 00:17:31;;;;;;;;;;;;;;;27.69;63.10;101289.56;5046100;28;68973;-40
2023/03/09 00:20:24;;;;;;;;;;;;;;;27.71;63.03;101293.75;5045687;28;65848;-41
2023/03/09 00:22:54;;;;;;;;;;;;;;;27.72;62.91;101297.28;5048690;28;70001;-41
2023/03/09 00:25:24;;;;;;;;;;;;;;;27.74;62.44;101300.63;5048144;28;66185;-40
2023/03/09 00:27:54;;;;;;;;;;;;;;;27.74;62.57;101301.44;5043248;28;70389;-42
2023/03/09 00:30:25;;;;;;;;;;;;;;;27.76;62.50;101304.81;5077123;27;66659;-41
2023/03/09 00:32:55;;;;;;;;;;;;;;;27.77;62.48;101305.63;5040689;28;69716;-39
2023/03/09 00:35:25;;;;;;;;;;;;;;;27.79;62.25;101314.38;5046977;28;65622;-41
2023/03/09 00:38:01;;;;;;;;;;;;;;;27.78;62.32;101318.09;5037908;28;70108;-38
2023/03/09 00:40:36;;;;;;;;;;;;;;;27.80;62.00;101324.16;5049241;28;66487;-40
2023/03/09 00:43:11;;;;;;;;;;;;;;;27.83;61.69;101315.69;5047098;27;69477;-40
2023/03/09 00:45:50;;;;;;;;;;;;;;;27.84;61.86;101323.59;5043103;28;65768;-40
2023/03/09 00:48:26;;;;;;;;;;;;;;;27.86;61.56;101320.72;5054061;28;70520;-40
2023/03/09 00:50:56;;;;;;;;;;;;;;;27.86;61.68;101331.50;5045035;28;65869;-41
2023/03/09 00:53:26;;;;;;;;;;;;;;;27.82;60.55;101320.25;5053142;28;70581;-40
2023/03/09 00:56:00;;;;;;;;;;;;;;;27.80;59.64;101327.72;5060790;28;66765;-41
2023/03/09 00:58:30;;;;;;;;;;;;;;;27.80;59.62;101333.09;5047742;28;69506;-41
2023/03/09 01:01:05;;;;;;;;;;;;;;;27.81;59.33;101329.38;5050268;27;66953;-41
2023/03/09 01:03:39;;;;;;;;;;;;;;;27.84;58.83;101333.56;5054649;28;63200;-42
2023/03/09 01:06:10;;;;;;;;;;;;;;;27.85;58.87;101336.03;5048163;28;65678;-41
2023/03/09 01:08:41;;;;;;;;;;;;;;;27.86;58.41;101342.28;5046263;27;70100;-41
2023/03/09 01:11:13;;;;;;;;;;;;;;;27.88;58.08;101340.22;5043073;28;67575;-41
2023/03/09 01:13:45;;;;;;;;;;;;;;;27.89;57.99;101330.28;5043810;28;69600;-41
2023/03/09 01:16:15;;;;;;;;;;;;;;;27.93;57.89;101342.38;5078120;27;66355;-41
2023/03/09 01:18:46;;;;;;;;;;;;;;;27.94;57.85;101336.75;5046168;28;69353;-42
2023/03/09 01:21:17;;;;;;;;;;;;;;;27.97;57.30;101341.81;5082927;27;65189;-41
2023/03/09 01:23:47;;;;;;;;;;;;;;;27.97;57.14;101341.81;5047682;28;70168;-40
2023/03/09 01:26:18;;;;;;;;;;;;;;;27.99;57.32;101339.72;5044081;28;66648;-41
2023/03/09 01:28:48;;;;;;;;;;;;;;;28.02;56.95;101360.09;5045664;28;69663;-41
2023/03/09 01:31:19;;;;;;;;;;;;;;;28.03;57.20;101359.09;5047078;28;66653;-41
2023/03/09 01:33:51;;;;;;;;;;;;;;;28.04;56.98;101349.97;5048390;28;71031;-40
2023/03/09 01:36:22;;;;;;;;;;;;;;;28.05;56.67;101355.19;5048566;28;65645;-40
2023/03/09 01:38:52;;;;;;;;;;;;;;;28.07;56.52;101361.19;5051699;28;69502;-42
2023/03/09 01:41:22;;;;;;;;;;;;;;;28.09;56.40;101354.78;5048152;28;66585;-40
2023/03/09 01:43:53;;;;;;;;;;;;;;;28.11;56.32;101363.50;5052268;28;69589;-40
2023/03/09 01:46:24;;;;;;;;;;;;;;;28.12;56.18;101368.72;5047647;28;65456;-39
2023/03/09 01:49:01;;;;;;;;;;;;;;;28.14;56.08;101360.44;5060901;27;70989;-40
2023/03/09 01:51:43;;;;;;;;;;;;;;;28.16;56.47;101364.59;5082335;27;66995;-41
2023/03/09 01:54:16;;;;;;;;;;;;;;;28.17;56.26;101365.47;5053381;28;69643;-40
2023/03/09 01:56:48;;;;;;;;;;;;;;;28.19;55.84;101364.22;5045889;28;66450;-42
2023/03/09 01:59:20;;;;;;;;;;;;;;;28.20;56.05;101365.91;5033301;28;70684;-41
2023/03/09 02:01:51;;;;;;;;;;;;;;;28.23;55.50;101356.59;5053688;28;67011;-40
2023/03/09 02:04:27;;;;;;;;;;;;;;;28.25;55.81;101354.53;5047755;28;69823;-41
2023/03/09 02:06:58;;;;;;;;;;;;;;;28.27;55.74;101365.97;5057390;28;66776;-42
2023/03/09 02:09:45;;;;;;;;;;;;;;;28.29;55.23;101363.94;5062282;27;69975;-41
2023/03/09 02:12:18;;;;;;;;;;;;;;;28.31;55.18;101372.69;5046859;27;66068;-41
2023/03/09 02:14:50;;;;;;;;;;;;;;;28.33;55.43;101365.19;5054507;28;70972;-41
2023/03/09 02:17:22;;;;;;;;;;;;;;;28.35;55.31;101362.34;5040495;27;65395;-41
2023/03/09 02:20:07;;;;;;;;;;;;;;;28.38;54.95;101365.47;5051845;28;69468;-40
2023/03/09 02:22:41;;;;;;;;;;;;;;;28.38;55.20;101368.16;5044584;28;66645;-41
2023/03/09 02:25:18;;;;;;;;;;;;;;;28.41;55.05;101365.09;5043308;28;70286;-42
2023/03/09 02:27:49;;;;;;;;;;;;;;;28.43;54.55;101365.75;5056479;28;65876;-41
2023/03/09 02:30:20;;;;;;;;;;;;;;;28.45;54.46;101374.50;5051097;28;70394;-41
2023/03/09 02:32:51;;;;;;;;;;;;;;;28.47;54.41;101369.78;5045338;28;66183;-41
2023/03/09 02:35:21;;;;;;;;;;;;;;;28.49;54.50;101365.00;5043829;28;70581;-41
2023/03/09 02:37:53;;;;;;;;;;;;;;;28.50;54.16;101366.69;5075489;27;67158;-40
2023/03/09 02:40:30;;;;;;;;;;;;;;;28.54;54.49;101369.00;5044020;28;69501;-41
2023/03/09 02:43:05;;;;;;;;;;;;;;;28.57;54.16;101372.13;5039088;28;65785;-41
2023/03/09 02:45:35;;;;;;;;;;;;;;;28.59;54.08;101363.84;5059902;28;70530;-40
2023/03/09 02:48:06;;;;;;;;;;;;;;;28.61;54.42;101367.16;5045189;28;66990;-41
2023/03/09 02:50:37;;;;;;;;;;;;;;;28.65;53.92;101365.78;5045343;28;70787;-42
2023/03/09 02:53:07;;;;;;;;;;;;;;;28.67;54.18;101363.72;5061443;27;65776;-40
2023/03/09 02:55:38;;;;;;;;;;;;;;;28.69;53.70;101364.34;5047105;28;69929;-39
2023/03/09 02:58:11;;;;;;;;;;;;;;;28.71;54.01;101348.78;5061461;27;66591;-42
2023/03/09 03:00:41;;;;;;;;;;;;;;;28.53;53.74;101316.88;5044643;28;70557;-42
2023/03/09 03:03:12;;;;;;;;;;;;;;;28.76;53.51;101349.06;5052948;28;65764;-41
2023/03/09 03:05:43;;;;;;;;;;;;;;;28.78;53.87;101347.00;5061237;27;70624;-41
2023/03/09 03:08:13;;;;;;;;;;;;;;;28.80;53.80;101330.59;5047827;28;65025;-45
2023/03/09 03:10:58;;;;;;;;;;;;;;;28.84;53.64;101345.38;5063893;27;70373;-41
2023/03/09 03:13:28;;;;;;;;;;;;;;;28.86;53.53;101346.88;5050695;28;66127;-40
2023/03/09 03:16:00;;;;;;;;;;;;;;;28.88;53.54;101342.06;5047891;28;70614;-40
2023/03/09 03:18:31;;;;;;;;;;;;;;;28.91;53.47;101338.97;5032570;28;66416;-45
2023/03/09 03:21:02;;;;;;;;;;;;;;;28.93;53.30;101328.81;5048741;27;69236;-41
2023/03/09 03:23:33;;;;;;;;;;;;;;;28.95;52.96;101329.47;5084354;27;66364;-42
2023/03/09 03:26:05;;;;;;;;;;;;;;;28.98;53.22;101327.41;5049724;27;70162;-41
2023/03/09 03:28:38;;;;;;;;;;;;;;;29.01;53.22;101313.50;5078292;27;66812;-40
2023/03/09 03:31:16;;;;;;;;;;;;;;;29.04;52.57;101313.16;5067558;27;70276;-40
2023/03/09 03:33:48;;;;;;;;;;;;;;;29.06;52.95;101305.66;5058771;28;65904;-42
2023/03/09 03:36:20;;;;;;;;;;;;;;;29.09;52.91;101300.72;5087784;27;70230;-41
2023/03/09 03:38:51;;;;;;;;;;;;;;;29.12;52.86;101304.91;5084635;27;66078;-41
2023/03/09 03:41:22;;;;;;;;;;;;;;;29.12;52.25;101294.91;5081848;27;70357;-40
2023/03/09 03:43:55;;;;;;;;;;;;;;;29.15;52.78;101293.69;5052396;28;65502;-41
2023/03/09 03:46:26;;;;;;;;;;;;;;;29.17;52.24;101289.75;5053749;28;69708;-40
2023/03/09 03:48:57;;;;;;;;;;;;;;;29.21;52.17;101284.78;5047406;28;66650;-42
2023/03/09 03:51:29;;;;;;;;;;;;;;;29.23;52.51;101280.03;5055732;28;70309;-42
2023/03/09 03:54:00;;;;;;;;;;;;;;;29.26;51.98;101276.09;5046853;28;67407;-41
2023/03/09 03:56:30;;;;;;;;;;;;;;;29.28;52.12;101272.16;5056222;28;70447;-41
2023/03/09 03:59:07;;;;;;;;;;;;;;;29.30;52.34;101264.66;5082764;27;66272;-40
2023/03/09 04:01:37;;;;;;;;;;;;;;;29.34;52.15;101262.41;5057580;28;70746;-41
2023/03/09 04:04:10;;;;;;;;;;;;;;;29.34;51.89;101260.53;5084888;27;66778;-42
2023/03/09 04:06:47;;;;;;;;;;;;;;;29.37;51.57;101257.44;5041753;28;69216;-40
2023/03/09 04:09:19;;;;;;;;;;;;;;;29.41;51.98;101255.16;5049232;28;67048;-41
2023/03/09 04:11:50;;;;;;;;;;;;;;;29.44;51.94;101253.91;5042959;28;69695;-41
2023/03/09 04:14:21;;;;;;;;;;;;;;;29.46;51.72;101236.47;5057892;28;66236;-41
2023/03/09 04:16:52;;;;;;;;;;;;;;;29.49;51.78;101246.03;5047084;27;69788;-41
2023/03/09 04:19:28;;;;;;;;;;;;;;;29.51;51.46;101233.16;5055729;28;66701;-41
2023/03/09 04:21:59;;;;;;;;;;;;;;;29.54;51.24;101230.88;5069462;27;69965;-39
2023/03/09 04:24:30;;;;;;;;;;;;;;;29.57;51.09;101222.38;5054114;28;65586;-40
2023/03/09 04:27:01;;;;;;;;;;;;;;;29.59;51.09;101212.19;5056240;28;73310;-41
2023/03/09 04:29:43;;;;;;;;;;;;;;;29.62;51.20;101213.66;5054044;28;66333;-40
2023/03/09 04:32:16;;;;;;;;;;;;;;;29.64;51.46;101208.88;5053927;28;70156;-40
2023/03/09 04:34:49;;;;;;;;;;;;;;;29.67;51.34;101208.50;5053998;28;66889;-41
2023/03/09 04:37:20;;;;;;;;;;;;;;;29.68;50.85;101202.06;5050724;28;70253;-41
2023/03/09 04:39:53;;;;;;;;;;;;;;;29.70;50.92;101189.16;5080410;27;65938;-41
2023/03/09 04:42:24;;;;;;;;;;;;;;;29.73;50.90;101187.94;5070693;28;69996;-42
2023/03/09 04:44:55;;;;;;;;;;;;;;;29.76;51.16;101184.81;5044496;28;66141;-43
2023/03/09 04:47:26;;;;;;;;;;;;;;;29.77;50.92;101173.78;5078884;27;70267;-41
2023/03/09 04:49:56;;;;;;;;;;;;;;;29.79;51.13;101170.88;5086637;27;66875;-40
2023/03/09 04:52:30;;;;;;;;;;;;;;;29.81;51.14;101161.53;5056670;28;69384;-42
2023/03/09 04:55:01;;;;;;;;;;;;;;;29.84;50.39;101163.81;5050430;28;66037;-42
2023/03/09 04:57:32;;;;;;;;;;;;;;;29.88;50.70;101157.97;5052990;27;69020;-41
2023/03/09 05:00:06;;;;;;;;;;;;;;;29.89;50.51;101155.06;5050015;28;66583;-41
2023/03/09 05:02:37;;;;;;;;;;;;;;;29.93;50.48;101155.50;5045311;27;70843;-43
2023/03/09 05:05:08;;;;;;;;;;;;;;;29.93;50.05;101150.91;5053856;27;67976;-42
2023/03/09 05:07:39;;;;;;;;;;;;;;;29.97;50.19;101148.63;5044079;28;70675;-43
2023/03/09 05:10:10;;;;;;;;;;;;;;;29.98;50.44;101132.19;5051908;28;66737;-43
2023/03/09 05:12:44;;;;;;;;;;;;;;;30.01;49.87;101136.34;5055685;28;69201;-42
2023/03/09 05:15:19;;;;;;;;;;;;;;;30.02;49.83;101119.06;5077345;27;65706;-41
2023/03/09 05:17:52;;;;;;;;;;;;;;;30.03;49.98;101118.88;5051168;27;70611;-42
2023/03/09 05:20:24;;;;;;;;;;;;;;;30.06;49.68;101112.19;5055213;28;66197;-41
2023/03/09 05:23:05;;;;;;;;;;;;;;;29.65;50.20;101051.06;5059107;27;70658;-44
2023/03/09 05:25:36;;;;;;;;;;;;;;;30.11;49.61;101117.81;5042283;28;66004;-41
2023/03/09 05:28:11;;;;;;;;;;;;;;;30.12;50.12;101111.38;5050305;28;70354;-40
2023/03/09 05:30:43;;;;;;;;;;;;;;;30.15;50.14;101107.41;5052114;28;66108;-41
2023/03/09 05:33:13;;;;;;;;;;;;;;;30.15;50.17;101105.53;5059074;28;70616;-40
2023/03/09 05:35:44;;;;;;;;;;;;;;;30.19;50.13;101095.13;5061494;27;66632;-41
2023/03/09 05:38:14;;;;;;;;;;;;;;;30.19;49.41;101090.53;5048401;28;69791;-41
2023/03/09 05:40:46;;;;;;;;;;;;;;;30.23;49.74;101081.00;5046669;28;66347;-41
2023/03/09 05:43:17;;;;;;;;;;;;;;;30.25;49.49;101075.38;5048138;28;70158;-41
2023/03/09 05:45:55;;;;;;;;;;;;;;;30.28;49.20;101066.81;5084423;27;66546;-42
2023/03/09 05:48:25;;;;;;;;;;;;;;;30.31;49.24;101060.16;5059022;28;70299;-40
2023/03/09 05:50:59;;;;;;;;;;;;;;;30.31;49.84;101050.16;5048161;28;66559;-42
2023/03/09 05:53:31;;;;;;;;;;;;;;;30.36;49.75;101052.22;5082500;27;69741;-41
2023/03/09 05:56:03;;;;;;;;;;;;;;;30.38;49.37;101044.75;5055115;27;66632;-42
2023/03/09 05:58:34;;;;;;;;;;;;;;;30.41;49.17;101041.59;5059398;28;69992;-41
2023/03/09 06:01:14;;;;;;;;;;;;;;;30.44;49.04;101038.47;5062639;27;66435;-41
2023/03/09 06:03:45;;;;;;;;;;;;;;;30.45;48.88;101035.56;5042948;28;70604;-41
2023/03/09 06:06:16;;;;;;;;;;;;;;;30.48;49.03;101028.88;5059916;27;66641;-41
2023/03/09 06:08:46;;;;;;;;;;;;;;;30.50;49.34;101018.66;5051060;28;70188;-43
2023/03/09 06:11:17;;;;;;;;;;;;;;;30.54;49.01;101022.63;5051222;28;67082;-40
2023/03/09 06:13:47;;;;;;;;;;;;;;;30.55;49.11;101008.03;5063855;27;70211;-41
2023/03/09 06:16:18;;;;;;;;;;;;;;;30.58;48.89;101001.34;5057552;27;66698;-42
2023/03/09 06:18:48;;;;;;;;;;;;;;;30.61;49.18;101000.91;5048257;28;69612;-42
2023/03/09 06:21:20;;;;;;;;;;;;;;;30.63;48.97;100994.25;5067218;28;66274;-41
2023/03/09 06:23:53;;;;;;;;;;;;;;;30.66;48.76;100990.28;5051478;28;70167;-42
2023/03/09 06:26:24;;;;;;;;;;;;;;;30.69;48.60;100987.94;5043761;28;66299;-43
2023/03/09 06:28:59;;;;;;;;;;;;;;;30.72;48.71;100975.88;5045912;28;70959;-41
2023/03/09 06:31:31;;;;;;;;;;;;;;;30.75;48.76;100980.84;5077100;27;66426;-42
2023/03/09 06:34:03;;;;;;;;;;;;;;;30.77;48.71;100967.91;5065494;27;70359;-41
2023/03/09 06:36:34;;;;;;;;;;;;;;;30.79;48.62;100973.97;5037054;28;65420;-43
2023/03/09 06:39:05;;;;;;;;;;;;;;;30.83;48.36;100966.25;5058027;28;70716;-42
2023/03/09 06:41:40;;;;;;;;;;;;;;;30.88;48.46;100966.44;5052119;28;66241;-41
2023/03/09 06:44:19;;;;;;;;;;;;;;;30.90;48.50;100961.63;5052756;28;70522;-40
2023/03/09 06:46:51;;;;;;;;;;;;;;;30.90;48.15;100946.22;5052690;28;66345;-40
2023/03/09 06:49:25;;;;;;;;;;;;;;;30.95;48.19;100948.25;5051920;28;70099;-41
2023/03/09 06:51:58;;;;;;;;;;;;;;;30.96;47.71;100941.78;5076115;27;66273;-41
2023/03/09 06:54:29;;;;;;;;;;;;;;;31.00;48.05;100945.72;5080068;27;70272;-41
2023/03/09 06:57:12;;;;;;;;;;;;;;;31.03;47.92;100937.13;5088780;27;66287;-42
2023/03/09 06:59:43;;;;;;;;;;;;;;;31.06;47.78;100938.56;5060288;28;70363;-41
2023/03/09 07:02:15;;;;;;;;;;;;;;;31.09;48.05;100924.59;5040164;28;65735;-41
2023/03/09 07:04:46;;;;;;;;;;;;;;;31.13;47.62;100918.50;5053605;28;69889;-41
2023/03/09 07:07:18;;;;;;;;;;;;;;;31.18;47.87;100915.16;5082595;27;65748;-41
2023/03/09 07:09:48;;;;;;;;;;;;;;;31.22;47.60;100923.66;5057372;28;69421;-42
2023/03/09 07:12:18;;;;;;;;;;;;;;;31.25;47.33;100915.91;5053489;28;65680;-42
2023/03/09 07:14:49;;;;;;;;;;;;;;;31.28;47.09;100910.03;5053543;28;70277;-42
2023/03/09 07:17:19;;;;;;;;;;;;;;;31.32;47.33;100911.28;5045347;28;65835;-41
2023/03/09 07:19:51;;;;;;;;;;;;;;;31.37;47.00;100910.59;5052633;28;69761;-41
2023/03/09 07:22:23;;;;;;;;;;;;;;;31.39;47.11;100903.09;5054179;27;65756;-43
2023/03/09 07:24:53;;;;;;;;;;;;;;;31.44;47.08;100903.25;5056170;28;70795;-41
2023/03/09 07:27:24;;;;;;;;;;;;;;;31.47;47.14;100894.69;5047794;28;65484;-41
2023/03/09 07:29:59;;;;;;;;;;;;;;;31.53;46.81;100893.78;5045273;28;69057;-41
2023/03/09 07:32:30;;;;;;;;;;;;;;;31.57;46.63;100884.16;5053228;28;65329;-42
2023/03/09 07:35:01;;;;;;;;;;;;;;;31.63;46.89;100881.59;5051229;28;70717;-42
2023/03/09 07:37:31;;;;;;;;;;;;;;;31.66;46.32;100883.84;5052791;27;66084;-41
2023/03/09 07:40:01;;;;;;;;;;;;;;;31.72;46.72;100888.38;5051514;28;69651;-41
2023/03/09 07:42:32;;;;;;;;;;;;;;;31.76;46.35;100878.72;5055957;28;67382;-42
2023/03/09 07:45:28;;;;;;;;;;;;;;;31.81;46.45;100876.16;5043577;28;70195;-41
2023/03/09 07:47:58;;;;;;;;;;;;;;;31.87;46.06;100875.25;5047631;28;67135;-39
2023/03/09 07:50:28;;;;;;;;;;;;;;;31.91;46.11;100870.22;5047237;28;69760;-40
2023/03/09 07:52:59;;;;;;;;;;;;;;;31.96;46.07;100873.09;5053085;28;66082;-40
2023/03/09 07:55:29;;;;;;;;;;;;;;;32.00;45.88;100864.25;5048764;27;69809;-40
2023/03/09 07:58:00;;;;;;;;;;;;;;;32.06;45.76;100859.81;5083460;27;65774;-41
2023/03/09 08:00:32;;;;;;;;;;;;;;;32.11;45.41;100859.94;5052961;28;69050;-40
2023/03/09 08:03:03;;;;;;;;;;;;;;;32.15;45.49;100855.72;5055023;28;65526;-39
2023/03/09 08:05:33;;;;;;;;;;;;;;;32.20;45.31;100850.41;5053623;28;69484;-41
2023/03/09 08:08:04;;;;;;;;;;;;;;;32.25;45.16;100858.72;5043205;28;65776;-41
2023/03/09 08:10:35;;;;;;;;;;;;;;;32.30;45.13;100855.31;5069127;27;70662;-40
2023/03/09 08:13:05;;;;;;;;;;;;;;;32.34;45.06;100856.50;5050811;27;66235;-42
2023/03/09 08:15:36;;;;;;;;;;;;;;;32.40;45.10;100850.16;5048484;28;70242;-41
2023/03/09 08:18:06;;;;;;;;;;;;;;;32.45;44.98;100850.25;5049611;28;67389;-40
2023/03/09 08:20:37;;;;;;;;;;;;;;;32.51;44.66;100858.59;5078722;27;69825;-42
2023/03/09 08:23:07;;;;;;;;;;;;;;;32.56;44.84;100851.38;5049760;28;65220;-41
2023/03/09 08:25:39;;;;;;;;;;;;;;;32.61;44.53;100859.69;5049132;28;70102;-40
2023/03/09 08:28:10;;;;;;;;;;;;;;;32.66;44.39;100853.56;5054157;28;66484;-42
2023/03/09 08:30:40;;;;;;;;;;;;;;;32.71;44.31;100859.13;5056844;28;70280;-41
2023/03/09 08:33:11;;;;;;;;;;;;;;;32.76;44.37;100850.25;5054360;28;65543;-41
2023/03/09 08:35:41;;;;;;;;;;;;;;;32.82;44.34;100861.03;5044285;27;69744;-41
2023/03/09 08:38:12;;;;;;;;;;;;;;;32.85;43.96;100855.13;5051808;28;67879;-41
2023/03/09 08:40:43;;;;;;;;;;;;;;;32.90;44.09;100868.84;5055438;28;69917;-40
2023/03/09 08:43:14;;;;;;;;;;;;;;;32.96;44.02;100855.34;5044935;28;65542;-40
2023/03/09 08:45:44;;;;;;;;;;;;;;;33.00;43.74;100864.72;5046176;28;70339;-42
2023/03/09 08:48:15;;;;;;;;;;;;;;;33.06;43.38;100855.63;5046816;28;66280;-42
2023/03/09 08:50:45;;;;;;;;;;;;;;;33.08;43.26;100858.94;5048061;28;69425;-41
2023/03/09 08:53:18;;;;;;;;;;;;;;;33.12;43.40;100860.94;5041395;28;66557;-41
2023/03/09 08:55:49;;;;;;;;;;;;;;;33.19;43.15;100866.28;5070563;27;69656;-41
2023/03/09 08:58:19;;;;;;;;;;;;;;;33.23;43.23;100872.88;5052042;27;66264;-41
2023/03/09 09:00:50;;;;;;;;;;;;;;;33.26;42.98;100872.41;5047527;28;70424;-42
2023/03/09 09:03:20;;;;;;;;;;;;;;;33.30;42.75;100875.50;5051272;28;66283;-42
2023/03/09 09:05:50;;;;;;;;;;;;;;;33.35;42.73;100881.88;5046904;28;70055;-42
2023/03/09 09:08:20;;;;;;;;;;;;;;;33.38;42.66;100892.28;5049574;28;66066;-42
2023/03/09 09:10:51;;;;;;;;;;;;;;;33.44;42.38;100889.69;5046654;28;70553;-42
2023/03/09 09:13:22;;;;;;;;;;;;;;;33.47;42.54;100889.19;5055210;28;66095;-42
2023/03/09 09:15:53;;;;;;;;;;;;;;;33.31;42.33;100897.00;5046459;28;68903;-44
2023/03/09 09:18:24;;;;;;;;;;;;;;;33.06;43.07;100907.25;5040379;28;65986;-42
2023/03/09 09:21:07;;;;;;;;;;;;;;;32.89;43.68;100910.63;5043510;28;70466;-41
2023/03/09 09:23:39;;;;;;;;;;;;;;;32.83;43.40;100900.72;5054150;28;65987;-42
2023/03/09 09:26:14;;;;;;;;;;;;;;;32.74;43.40;100909.44;5047116;28;69454;-43
2023/03/09 09:28:45;;;;;;;;;;;;;;;32.71;43.02;100913.44;5049971;28;67063;-41
2023/03/09 09:31:19;;;;;;;;;;;;;;;32.67;42.70;100912.22;5052401;28;69280;-41
2023/03/09 09:33:54;;;;;;;;;;;;;;;32.80;43.16;100920.19;5051674;28;66136;-42
2023/03/09 09:36:24;;;;;;;;;;;;;;;33.02;42.48;100908.81;5043180;28;69485;-42
2023/03/09 09:38:54;;;;;;;;;;;;;;;33.18;41.93;100918.13;5045467;28;65287;-42
2023/03/09 09:41:28;;;;;;;;;;;;;;;33.26;41.87;100915.91;5042543;28;69442;-43
2023/03/09 09:44:01;;;;;;;;;;;;;;;33.35;41.64;100917.22;5082883;27;66191;-41
2023/03/09 09:46:31;;;;;;;;;;;;;;;33.42;41.49;100908.13;5049010;28;70079;-43
2023/03/09 09:49:03;;;;;;;;;;;;;;;33.46;41.44;100904.69;5047735;28;66364;-42
2023/03/09 09:52:06;;;;;;;;;;;;;;;33.51;41.44;100909.41;5044552;28;69786;-41
2023/03/09 09:54:39;;;;;;;;;;;;;;;33.53;41.45;100904.59;5045517;28;66325;-41
2023/03/09 09:57:22;;;;;;;;;;;;;;;33.55;41.42;100907.91;5077014;27;70431;-42
2023/03/09 10:00:02;;;;;;;;;;;;;;;33.58;41.28;100910.16;5044222;28;65762;-41
2023/03/09 10:02:39;;;;;;;;;;;;;;;33.59;41.00;100909.06;5043560;28;70133;-42
2023/03/09 10:05:12;;;;;;;;;;;;;;;33.59;40.98;100915.31;5042688;28;66957;-43
2023/03/09 10:07:42;;;;;;;;;;;;;;;33.08;42.13;100913.31;5041799;28;69475;-41
2023/03/09 10:10:21;;;;;;;;;;;;;;;32.90;41.63;100928.63;5042648;28;66875;-40
2023/03/09 10:12:52;;;;;;;;;;;;;;;32.87;40.58;100928.22;5043635;28;69349;-41
2023/03/09 10:15:34;;;;;;;;;;;;;;;32.92;40.40;100926.47;5041702;28;66232;-41
2023/03/09 10:18:16;;;;;;;;;;;;;;;32.89;40.44;100924.22;5043099;28;70105;-41
2023/03/09 10:20:51;;;;;;;;;;;;;;;32.75;41.31;100932.81;5081099;27;66494;-43
2023/03/09 10:23:22;;;;;;;;;;;;;;;32.71;42.20;100937.88;5044301;28;70760;-42
2023/03/09 10:25:57;;;;;;;;;;;;;;;32.69;42.77;100945.44;5052497;28;66888;-41
2023/03/09 10:28:32;;;;;;;;;;;;;;;32.65;43.68;100941.50;5046796;28;69040;-44
2023/03/09 10:31:15;;;;;;;;;;;;;;;32.64;44.14;100945.28;5053509;28;65243;-41
2023/03/09 10:33:48;;;;;;;;;;;;;;;32.72;44.21;100950.41;5044601;27;69702;-44
2023/03/09 10:36:30;;;;;;;;;;;;;;;32.70;44.60;100958.75;5045397;28;66415;-42
2023/03/09 10:39:12;;;;;;;;;;;;;;;32.71;43.64;100951.47;5050387;27;70314;-42
2023/03/09 10:41:42;;;;;;;;;;;;;;;32.82;44.26;100957.97;5045859;28;67577;-41
2023/03/09 10:44:15;;;;;;;;;;;;;;;32.92;44.21;100964.50;5046710;27;70753;-41
2023/03/09 10:46:58;;;;;;;;;;;;;;;33.02;43.73;100966.69;5042983;27;67052;-42
2023/03/09 10:49:32;;;;;;;;;;;;;;;33.09;43.52;100963.88;5046714;27;69885;-42
2023/03/09 10:52:04;;;;;;;;;;;;;;;33.13;43.23;100970.50;5045505;28;65589;-42
2023/03/09 10:54:36;;;;;;;;;;;;;;;33.15;43.40;100979.22;5047628;28;70018;-43
2023/03/09 10:57:26;;;;;;;;;;;;;;;33.15;43.04;100980.09;5052500;28;65490;-42
2023/03/09 11:00:01;;;;;;;;;;;;;;;33.14;42.78;100977.59;5045655;28;69882;-42
2023/03/09 11:02:35;;;;;;;;;;;;;;;33.16;42.34;100980.91;5041731;28;66991;-43
2023/03/09 11:05:19;;;;;;;;;;;;;;;33.14;42.17;100983.03;5044384;28;69457;-42
2023/03/09 11:07:57;;;;;;;;;;;;;;;33.11;42.21;100989.75;5049540;28;65545;-42
2023/03/09 11:10:29;;;;;;;;;;;;;;;33.09;42.04;100991.03;5038615;28;70816;-41
2023/03/09 11:13:01;;;;;;;;;;;;;;;33.07;41.69;100993.16;5051849;28;66770;-42
2023/03/09 11:15:40;;;;;;;;;;;;;;;33.06;42.01;100996.94;5045146;28;70145;-42
2023/03/09 11:18:29;;;;;;;;;;;;;;;33.05;41.89;101001.56;5048458;27;65611;-42
2023/03/09 11:20:59;;;;;;;;;;;;;;;33.03;41.66;101002.84;5044943;28;69108;-42
2023/03/09 11:23:37;;;;;;;;;;;;;;;33.00;41.80;101006.03;5047278;28;66718;-42
2023/03/09 11:26:28;;;;;;;;;;;;;;;32.99;41.95;101007.03;5060652;27;68859;-41
2023/03/09 11:29:02;;;;;;;;;;;;;;;32.95;42.15;101012.13;5043876;28;65567;-43
2023/03/09 11:31:39;;;;;;;;;;;;;;;32.93;42.21;101017.81;5047052;28;70404;-44
2023/03/09 11:34:15;;;;;;;;;;;;;;;32.91;42.17;101019.91;5044352;28;66414;-44
2023/03/09 11:36:52;;;;;;;;;;;;;;;32.90;42.16;101026.44;5043904;28;69839;-43
2023/03/09 11:39:49;;;;;;;;;;;;;;;32.87;42.30;101037.72;5048662;28;66946;-42
2023/03/09 11:42:28;;;;;;;;;;;;;;;32.82;42.54;101034.91;5045789;28;69999;-42
2023/03/09 11:45:00;;;;;;;;;;;;;;;32.79;42.44;101034.50;5044808;27;66269;-44
2023/03/09 11:47:36;;;;;;;;;;;;;;;32.77;42.68;101037.47;5043432;28;68644;-42
2023/03/09 11:50:18;;;;;;;;;;;;;;;32.76;42.70;101037.69;5053173;27;65945;-42
2023/03/09 11:52:56;;;;;;;;;;;;;;;32.72;42.75;101038.16;5060724;27;70409;-42
2023/03/09 11:55:46;;;;;;;;;;;;;;;32.72;42.99;101040.03;5054556;28;66126;-43
2023/03/09 11:58:20;;;;;;;;;;;;;;;32.67;43.07;101038.00;5047449;28;70331;-44
2023/03/09 12:00:55;;;;;;;;;;;;;;;32.65;42.93;101050.16;5045201;28;66027;-42
2023/03/09 12:03:27;;;;;;;;;;;;;;;32.61;43.05;101049.78;5051761;27;70873;-45
2023/03/09 12:06:00;;;;;;;;;;;;;;;32.58;43.09;101039.38;5048804;27;66846;-43
2023/03/09 12:08:39;;;;;;;;;;;;;;;32.56;43.22;101040.66;5047685;28;70538;-43
2023/03/09 12:11:19;;;;;;;;;;;;;;;32.53;43.50;101043.84;5043039;28;66386;-42
2023/03/09 12:13:49;;;;;;;;;;;;;;;32.51;43.66;101054.91;5049476;28;69955;-43
2023/03/09 12:16:22;;;;;;;;;;;;;;;32.47;43.52;101043.69;5052560;28;66347;-44
2023/03/09 12:19:10;;;;;;;;;;;;;;;32.45;43.85;101053.91;5043436;28;70412;-41
2023/03/09 12:21:42;;;;;;;;;;;;;;;32.41;43.89;101044.56;5049936;28;66276;-45
2023/03/09 12:24:15;;;;;;;;;;;;;;;32.40;44.01;101061.94;5048892;28;70506;-42
2023/03/09 12:26:55;;;;;;;;;;;;;;;32.37;44.02;101059.63;5048895;28;67070;-42
2023/03/09 12:29:32;;;;;;;;;;;;;;;32.36;43.98;101058.00;5048575;28;69786;-41
2023/03/09 12:32:20;;;;;;;;;;;;;;;32.34;43.93;101068.22;5040960;28;65674;-43
2023/03/09 12:34:53;;;;;;;;;;;;;;;32.32;43.90;101064.94;5045981;28;70580;-42
2023/03/09 12:37:29;;;;;;;;;;;;;;;32.29;44.20;101073.53;5044402;28;65314;-42
2023/03/09 12:40:00;;;;;;;;;;;;;;;32.26;43.73;101071.25;5044526;28;69886;-42
2023/03/09 12:42:37;;;;;;;;;;;;;;;32.23;43.81;101069.84;5047434;28;66982;-42
2023/03/09 12:45:14;;;;;;;;;;;;;;;32.21;44.02;101087.41;5047698;28;68913;-43
2023/03/09 12:47:53;;;;;;;;;;;;;;;32.18;44.11;101087.81;5047309;28;66266;-42
2023/03/09 12:50:26;;;;;;;;;;;;;;;32.16;44.45;101087.25;5048304;28;69800;-42
2023/03/09 12:53:09;;;;;;;;;;;;;;;32.13;44.59;101087.69;5056594;28;66137;-48
2023/03/09 12:55:39;;;;;;;;;;;;;;;32.10;44.62;101096.28;5052237;28;69557;-44
2023/03/09 12:58:21;;;;;;;;;;;;;;;32.07;44.69;101103.00;5046428;28;66208;-42
2023/03/09 13:00:53;;;;;;;;;;;;;;;32.03;43.36;101112.59;5081536;27;69965;-41
2023/03/09 13:03:42;;;;;;;;;;;;;;;31.92;42.62;101114.16;5046881;28;65611;-40
2023/03/09 13:06:31;;;;;;;;;;;;;;;31.76;42.82;101112.81;5055866;28;70256;-40
2023/03/09 13:09:06;;;;;;;;;;;;;;;31.45;43.30;101112.81;5043543;28;66946;-40